Katherine Aerodrome, Australia
Current Conditions -  °F | °C
As of 3:00 AM on Sunday 26 Oct 2014 (Local Time) from YPTN Reporting Station
Clear Clear  
Wind Chill: 77°   Ceiling: Unl
Heat Index: 79°   Visibility: 6mi
Dew Point: 59°   Wind: 7mph
Humidity: 54%   Direction: 340°NNW
Pressure: 29.91"   Gusts: NA
Location:  14.43°S, 132.27°E
Report Text: YPTN 251800Z AUTO 34006KT 9999 // NCD 25/15 Q1013
Loading
Personal Weather Stations






























Interactive Weather Map
Tropical Storm Tracking
New forecast layout! Learn more

10-Day Weather Forecast

Advertisements
Track Severe Weather on mobile